createdAt,value
2023-04-04T00:00:29.775Z,1.30
2023-04-04T00:02:56.445Z,1.30
2023-04-04T00:05:23.848Z,1.30
2023-04-04T00:07:50.346Z,1.30
2023-04-04T00:10:16.912Z,1.20
2023-04-04T00:12:43.932Z,1.30
2023-04-04T00:15:11.080Z,1.30
2023-04-04T00:17:37.591Z,1.30
2023-04-04T00:20:04.177Z,1.30
2023-04-04T00:22:30.819Z,1.20
2023-04-04T00:24:57.954Z,1.20
2023-04-04T00:27:24.523Z,1.10
2023-04-04T00:29:51.110Z,1.10
2023-04-04T00:32:17.639Z,1.10
2023-04-04T00:34:44.266Z,1.10
2023-04-04T00:37:12.981Z,1.10
2023-04-04T00:39:39.596Z,1.10
2023-04-04T00:42:06.587Z,1.10
2023-04-04T00:44:33.240Z,1.00
2023-04-04T00:46:59.743Z,1.00
2023-04-04T00:49:26.288Z,1.00
2023-04-04T00:51:52.780Z,1.00
2023-04-04T00:54:19.297Z,1.00
2023-04-04T00:56:45.778Z,1.00
2023-04-04T00:59:12.291Z,1.00
2023-04-04T01:01:38.991Z,1.00
2023-04-04T01:04:05.675Z,1.00
2023-04-04T01:06:32.762Z,1.00
2023-04-04T01:08:59.286Z,1.00
2023-04-04T01:11:25.760Z,0.90
2023-04-04T01:13:52.295Z,0.90
2023-04-04T01:16:18.863Z,0.90
2023-04-04T01:18:45.396Z,0.80
2023-04-04T01:21:11.949Z,0.80
2023-04-04T01:23:38.474Z,0.80
2023-04-04T01:26:05.566Z,0.80
2023-04-04T01:28:32.395Z,0.70
2023-04-04T01:30:58.887Z,0.70
2023-04-04T01:33:25.409Z,0.70
2023-04-04T01:35:51.983Z,0.60
2023-04-04T01:38:18.881Z,0.60
2023-04-04T01:40:46.535Z,0.60
2023-04-04T01:43:13.396Z,0.60
2023-04-04T01:45:40.413Z,0.50
2023-04-04T01:48:08.117Z,0.50
2023-04-04T01:50:34.802Z,0.30
2023-04-04T01:53:01.305Z,0.30
2023-04-04T01:55:27.938Z,0.30
2023-04-04T01:57:54.440Z,0.30
2023-04-04T02:00:20.948Z,0.20
2023-04-04T02:02:47.529Z,0.20
2023-04-04T02:05:14.086Z,0.10
2023-04-04T02:07:40.659Z,0.10
2023-04-04T02:10:07.268Z,0.10
2023-04-04T02:12:34.137Z,0.10
2023-04-04T02:15:01.418Z,0.10
2023-04-04T02:17:28.422Z,0.10
2023-04-04T02:19:55.291Z,0.10
2023-04-04T02:22:21.807Z,0.10
2023-04-04T02:24:48.309Z,0.10
2023-04-04T02:27:14.824Z,0.00
2023-04-04T02:29:41.335Z,0.00
2023-04-04T02:32:07.983Z,0.10
2023-04-04T02:34:34.636Z,0.00
2023-04-04T02:37:02.136Z,0.00
2023-04-04T02:39:28.665Z,0.00
2023-04-04T02:41:55.424Z,0.00
2023-04-04T02:44:22.414Z,0.00
2023-04-04T02:46:49.137Z,0.00
2023-04-04T02:49:15.756Z,0.00
2023-04-04T02:51:42.313Z,0.00
2023-04-04T02:54:10.046Z,0.10
2023-04-04T02:56:36.973Z,0.00
2023-04-04T02:59:04.451Z,0.00
2023-04-04T03:01:31.159Z,0.00
2023-04-04T03:03:57.824Z,0.00
2023-04-04T03:06:24.378Z,-0.10
2023-04-04T03:08:51.039Z,-0.10
2023-04-04T03:11:17.506Z,-0.10
2023-04-04T03:13:44.082Z,-0.20
2023-04-04T03:16:10.710Z,-0.20
2023-04-04T03:18:37.260Z,-0.10
2023-04-04T03:21:03.753Z,-0.10
2023-04-04T03:23:30.218Z,-0.20
2023-04-04T03:25:56.726Z,-0.20
2023-04-04T03:28:23.332Z,-0.30
2023-04-04T03:30:50.149Z,-0.30
2023-04-04T03:33:16.678Z,-0.30
2023-04-04T03:35:43.235Z,-0.50
2023-04-04T03:38:09.841Z,-0.50
2023-04-04T03:40:36.525Z,-0.60
2023-04-04T03:43:03.040Z,-0.60
2023-04-04T03:45:32.752Z,-0.60
2023-04-04T03:47:59.416Z,-0.50
2023-04-04T03:50:26.000Z,-0.50
2023-04-04T03:52:52.601Z,-0.50
2023-04-04T03:55:19.151Z,-0.50
2023-04-04T03:57:46.315Z,-0.50
2023-04-04T04:00:12.811Z,-0.40
2023-04-04T04:02:39.628Z,-0.40
2023-04-04T04:05:06.297Z,-0.50
2023-04-04T04:07:33.476Z,-0.50
2023-04-04T04:10:00.450Z,-0.50
2023-04-04T04:12:27.079Z,-0.50
2023-04-04T04:14:53.597Z,-0.50
2023-04-04T04:17:20.156Z,-0.50
2023-04-04T04:19:46.713Z,-0.60
2023-04-04T04:22:13.186Z,-0.60
2023-04-04T04:24:39.780Z,-0.60
2023-04-04T04:27:06.839Z,-0.70
2023-04-04T04:29:33.509Z,-0.70
2023-04-04T04:32:01.556Z,-0.70
2023-04-04T04:34:28.360Z,-0.70
2023-04-04T04:36:54.915Z,-0.70
2023-04-04T04:39:21.631Z,-0.70
2023-04-04T04:41:48.188Z,-0.70
2023-04-04T04:44:14.677Z,-0.70
2023-04-04T04:46:41.389Z,-0.80
2023-04-04T04:49:08.169Z,-0.80
2023-04-04T04:51:34.770Z,-0.80
2023-04-04T04:54:01.610Z,-0.90
2023-04-04T04:56:28.088Z,-0.90
2023-04-04T04:58:54.636Z,-0.90
2023-04-04T05:01:21.319Z,-0.90
2023-04-04T05:03:47.842Z,-0.90
2023-04-04T05:06:14.409Z,-1.00
2023-04-04T05:08:40.959Z,-1.00
2023-04-04T05:11:07.741Z,-1.10
2023-04-04T05:13:34.687Z,-1.00
2023-04-04T05:16:01.158Z,-1.00
2023-04-04T05:18:28.334Z,-0.90
2023-04-04T05:20:54.960Z,-0.90
2023-04-04T05:23:21.434Z,-0.80
2023-04-04T05:25:47.928Z,-0.80
2023-04-04T05:28:14.434Z,-0.80
2023-04-04T05:30:41.692Z,-0.70
2023-04-04T05:33:08.589Z,-0.70
2023-04-04T05:35:35.297Z,-0.70
2023-04-04T05:38:01.931Z,-0.60
2023-04-04T05:40:28.430Z,-0.60
2023-04-04T05:42:54.996Z,-0.60
2023-04-04T05:45:21.577Z,-0.60
2023-04-04T05:47:51.182Z,-0.60
2023-04-04T05:50:17.844Z,-0.50
2023-04-04T05:52:44.317Z,-0.50
2023-04-04T05:55:10.976Z,-0.50
2023-04-04T05:57:37.527Z,-0.40
2023-04-04T06:00:05.802Z,-0.40
2023-04-04T06:02:32.352Z,-0.30
2023-04-04T06:04:58.968Z,-0.30
2023-04-04T06:07:25.734Z,-0.20
2023-04-04T06:09:52.223Z,-0.20
2023-04-04T06:12:18.715Z,-0.20
2023-04-04T06:14:45.322Z,-0.10
2023-04-04T06:17:11.804Z,-0.10
2023-04-04T06:19:38.316Z,0.00
2023-04-04T06:22:04.804Z,0.10
2023-04-04T06:24:31.341Z,0.20
2023-04-04T06:26:57.819Z,0.30
2023-04-04T06:29:24.436Z,0.40
2023-04-04T06:31:51.170Z,0.40
2023-04-04T06:34:17.674Z,0.50
2023-04-04T06:36:44.633Z,0.60
2023-04-04T06:39:11.475Z,0.70
2023-04-04T06:41:37.971Z,0.80
2023-04-04T06:44:04.562Z,0.90
2023-04-04T06:46:32.997Z,0.90
2023-04-04T06:48:59.518Z,1.00
2023-04-04T06:51:25.980Z,1.00
2023-04-04T06:53:52.474Z,0.90
2023-04-04T06:56:19.001Z,0.90
2023-04-04T06:58:45.635Z,1.00
2023-04-04T07:01:12.268Z,1.00
2023-04-04T07:03:38.876Z,1.00
2023-04-04T07:06:05.478Z,1.10
2023-04-04T07:08:36.187Z,1.10
2023-04-04T07:11:03.224Z,1.20
2023-04-04T07:13:29.753Z,1.30
2023-04-04T07:15:56.222Z,1.40
2023-04-04T07:18:22.808Z,1.50
2023-04-04T07:20:49.460Z,1.60
2023-04-04T07:23:15.942Z,1.60
2023-04-04T07:25:44.352Z,1.70
2023-04-04T07:28:13.232Z,1.90
2023-04-04T07:30:40.396Z,2.00
2023-04-04T07:33:07.165Z,2.00
2023-04-04T07:35:33.802Z,2.10
2023-04-04T07:38:00.537Z,2.20
2023-04-04T07:40:27.183Z,2.30
2023-04-04T07:42:54.556Z,2.40
2023-04-04T07:45:22.108Z,2.50
2023-04-04T07:47:48.860Z,2.50
2023-04-04T07:50:15.580Z,2.50
2023-04-04T07:52:42.156Z,2.60
2023-04-04T07:55:08.716Z,2.70
2023-04-04T07:57:35.262Z,2.80
2023-04-04T08:00:02.286Z,2.90
2023-04-04T08:02:28.869Z,2.90
2023-04-04T08:04:55.448Z,2.90
2023-04-04T08:07:22.419Z,3.00
2023-04-04T08:09:48.952Z,3.00
2023-04-04T08:12:15.640Z,3.10
2023-04-04T08:14:42.445Z,3.10
2023-04-04T08:17:09.182Z,3.20
2023-04-04T08:19:35.817Z,3.20
2023-04-04T08:22:02.916Z,3.30
2023-04-04T08:24:29.478Z,3.30
2023-04-04T08:27:04.472Z,3.30
2023-04-04T08:29:32.706Z,3.40
2023-04-04T08:31:59.448Z,3.40
2023-04-04T08:34:25.969Z,3.50
2023-04-04T08:36:52.917Z,3.50
2023-04-04T08:39:19.477Z,3.60
2023-04-04T08:41:46.048Z,3.60
2023-04-04T08:44:13.147Z,3.70
2023-04-04T08:46:39.712Z,3.80
2023-04-04T08:49:06.875Z,3.90
2023-04-04T08:51:33.398Z,4.00
2023-04-04T08:54:00.531Z,4.10
2023-04-04T08:56:28.575Z,4.20
2023-04-04T08:58:55.550Z,4.20
2023-04-04T09:04:30.406Z,4.30
2023-04-04T09:06:58.843Z,4.30
2023-04-04T09:09:47.224Z,4.30
2023-04-04T09:12:30.070Z,4.40
2023-04-04T09:15:06.948Z,4.50
2023-04-04T09:17:35.894Z,4.60
2023-04-04T09:20:18.322Z,4.50
2023-04-04T09:22:51.101Z,4.50
2023-04-04T09:25:19.973Z,4.60
2023-04-04T09:28:05.858Z,4.60
2023-04-04T09:30:38.798Z,4.80
2023-04-04T09:33:09.918Z,4.90
2023-04-04T09:35:44.762Z,4.90
2023-04-04T09:38:25.335Z,5.00
2023-04-04T09:40:59.344Z,5.00
2023-04-04T09:43:34.402Z,5.10
2023-04-04T09:46:05.202Z,5.10
2023-04-04T09:48:33.611Z,5.10
2023-04-04T09:51:01.738Z,5.20
2023-04-04T09:53:36.080Z,5.20
2023-04-04T09:56:04.580Z,5.40
2023-04-04T09:58:52.430Z,5.40
2023-04-04T10:01:34.406Z,5.50
2023-04-04T10:04:02.212Z,5.60
2023-04-04T10:06:30.656Z,5.80
2023-04-04T10:08:59.397Z,5.80
2023-04-04T10:11:27.047Z,5.90
2023-04-04T10:13:57.341Z,5.90
2023-04-04T10:16:25.442Z,6.00
2023-04-04T10:18:55.268Z,6.20
2023-04-04T10:21:26.134Z,6.10
2023-04-04T10:23:57.145Z,6.00
2023-04-04T10:26:29.155Z,6.00
2023-04-04T10:28:58.848Z,6.00
2023-04-04T10:31:28.410Z,6.20
2023-04-04T10:33:55.747Z,6.40
2023-04-04T10:36:22.313Z,6.50
2023-04-04T10:38:48.896Z,6.60
2023-04-04T10:41:15.936Z,6.60
2023-04-04T10:43:42.591Z,6.80
2023-04-04T10:46:09.200Z,6.80
2023-04-04T10:48:36.350Z,7.00
2023-04-04T10:51:03.047Z,7.00
2023-04-04T10:53:29.562Z,7.00
2023-04-04T10:55:56.237Z,7.00
2023-04-04T10:58:22.803Z,7.00
2023-04-04T11:00:49.368Z,7.10
2023-04-04T11:03:15.911Z,7.10
2023-04-04T11:05:51.013Z,7.00
2023-04-04T11:08:18.730Z,7.10
2023-04-04T11:10:45.322Z,7.20
2023-04-04T11:13:14.375Z,7.20
2023-04-04T11:15:41.263Z,7.20
2023-04-04T11:18:21.453Z,7.30
2023-04-04T11:20:54.602Z,7.40
2023-04-04T11:23:22.585Z,7.50
2023-04-04T11:25:49.118Z,7.50
2023-04-04T11:28:15.744Z,7.60
2023-04-04T11:30:47.996Z,7.60
2023-04-04T11:33:15.265Z,7.80
2023-04-04T11:35:42.743Z,7.80
2023-04-04T11:38:09.935Z,7.80
2023-04-04T11:40:36.465Z,7.90
2023-04-04T11:43:04.138Z,7.90
2023-04-04T11:45:31.619Z,7.80
2023-04-04T11:47:58.315Z,7.90
2023-04-04T11:50:25.457Z,8.10
2023-04-04T11:52:53.862Z,8.30
2023-04-04T11:55:21.752Z,8.30
2023-04-04T11:57:49.173Z,8.30
2023-04-04T12:00:16.020Z,8.20
2023-04-04T12:02:43.402Z,8.30
2023-04-04T12:05:10.114Z,8.40
2023-04-04T12:07:36.656Z,8.50
2023-04-04T12:10:03.230Z,8.50
2023-04-04T12:12:29.786Z,8.60
2023-04-04T12:15:03.460Z,8.60
2023-04-04T12:17:42.128Z,8.70
2023-04-04T12:20:08.733Z,8.80
2023-04-04T12:22:35.299Z,8.90
2023-04-04T12:25:01.998Z,8.90
2023-04-04T12:27:30.027Z,9.00
2023-04-04T12:29:56.541Z,9.00
2023-04-04T12:32:23.118Z,8.60
2023-04-04T12:34:50.886Z,8.40
2023-04-04T12:37:19.426Z,8.30
2023-04-04T12:39:45.970Z,8.20
2023-04-04T12:42:13.078Z,8.20
2023-04-04T12:44:39.895Z,8.30
2023-04-04T12:47:06.669Z,8.30
2023-04-04T12:49:33.622Z,8.30
2023-04-04T12:52:07.388Z,8.40
2023-04-04T12:54:33.980Z,8.60
2023-04-04T12:57:02.618Z,8.70
2023-04-04T12:59:29.258Z,8.80
2023-04-04T13:01:55.846Z,8.90
2023-04-04T13:04:24.390Z,9.00
2023-04-04T13:06:51.580Z,9.00
2023-04-04T13:09:18.925Z,9.00
2023-04-04T13:11:45.455Z,8.90
2023-04-04T13:14:13.288Z,8.80
2023-04-04T13:16:41.819Z,9.00
2023-04-04T13:19:09.039Z,9.10
2023-04-04T13:21:35.614Z,9.10
2023-04-04T13:24:02.129Z,9.30
2023-04-04T13:26:28.957Z,9.30
2023-04-04T13:28:55.864Z,9.20
2023-04-04T13:31:23.386Z,9.00
2023-04-04T13:33:50.094Z,9.10
2023-04-04T13:36:16.649Z,9.00
2023-04-04T13:38:43.334Z,8.90
2023-04-04T13:41:09.885Z,9.00
2023-04-04T13:43:36.424Z,9.00
2023-04-04T13:46:03.023Z,9.10
2023-04-04T13:48:29.591Z,9.10
2023-04-04T13:50:56.176Z,9.20
2023-04-04T13:53:22.820Z,9.20
2023-04-04T13:58:20.331Z,9.40
2023-04-04T14:00:47.061Z,9.50
2023-04-04T14:03:13.697Z,9.70
2023-04-04T14:05:40.743Z,9.70
2023-04-04T14:08:08.078Z,9.80
2023-04-04T14:10:34.889Z,9.70
2023-04-04T14:13:01.765Z,9.40
2023-04-04T14:15:28.895Z,9.40
2023-04-04T14:17:55.679Z,9.40
2023-04-04T14:20:22.230Z,9.50
2023-04-04T14:22:48.784Z,9.60
2023-04-04T14:25:15.466Z,9.40
2023-04-04T14:27:42.022Z,9.30
2023-04-04T14:30:08.542Z,9.40
2023-04-04T14:32:35.246Z,9.50
2023-04-04T14:35:01.901Z,9.60
2023-04-04T14:37:28.456Z,9.50
2023-04-04T14:39:54.971Z,9.40
2023-04-04T14:42:21.621Z,9.40
2023-04-04T14:44:48.205Z,9.30
2023-04-04T14:47:15.428Z,9.20
2023-04-04T14:49:43.374Z,9.30
2023-04-04T14:52:09.882Z,9.30
2023-04-04T14:54:36.484Z,9.40
2023-04-04T14:57:03.171Z,9.40
2023-04-04T14:59:30.076Z,9.40
2023-04-04T15:01:56.715Z,9.50
2023-04-04T15:04:23.302Z,9.60
2023-04-04T15:06:49.886Z,9.60
2023-04-04T15:09:16.754Z,9.60
2023-04-04T15:11:43.334Z,9.60
2023-04-04T15:14:09.877Z,9.60
2023-04-04T15:16:36.554Z,9.60
2023-04-04T15:19:03.128Z,9.60
2023-04-04T15:21:29.692Z,9.60
2023-04-04T15:23:56.293Z,9.70
2023-04-04T15:26:23.043Z,9.80
2023-04-04T15:28:49.595Z,9.80
2023-04-04T15:31:16.592Z,9.80
2023-04-04T15:33:43.153Z,9.80
2023-04-04T15:39:11.185Z,9.80
2023-04-04T15:41:37.779Z,9.80
2023-04-04T15:44:04.443Z,9.80
2023-04-04T15:46:31.028Z,9.80
2023-04-04T15:48:57.640Z,9.80
2023-04-04T15:51:25.496Z,9.90
2023-04-04T15:53:52.027Z,10.00
2023-04-04T15:56:18.829Z,9.90
2023-04-04T15:58:45.727Z,9.80
2023-04-04T16:01:12.398Z,9.60
2023-04-04T16:03:39.094Z,9.50
2023-04-04T16:06:10.009Z,9.60
2023-04-04T16:08:36.546Z,9.70
2023-04-04T16:11:03.231Z,9.80
2023-04-04T16:13:29.765Z,10.00
2023-04-04T16:15:56.607Z,9.90
2023-04-04T16:18:23.165Z,9.70
2023-04-04T16:20:49.713Z,9.70
2023-04-04T16:23:17.721Z,9.80
2023-04-04T16:25:44.269Z,10.00
2023-04-04T16:28:10.974Z,10.00
2023-04-04T16:30:37.641Z,9.90
2023-04-04T16:33:04.374Z,10.00
2023-04-04T16:35:32.552Z,10.10
2023-04-04T16:37:59.158Z,10.00
2023-04-04T16:40:25.907Z,10.10
2023-04-04T16:42:52.443Z,10.20
2023-04-04T16:45:19.027Z,10.20
2023-04-04T16:47:45.756Z,10.10
2023-04-04T16:50:12.275Z,10.10
2023-04-04T16:52:38.796Z,9.90
2023-04-04T16:55:05.429Z,9.80
2023-04-04T16:57:31.949Z,9.70
2023-04-04T16:59:58.640Z,9.70
2023-04-04T17:02:25.210Z,9.60
2023-04-04T17:04:52.280Z,9.60
2023-04-04T17:07:18.797Z,9.60
2023-04-04T17:09:47.194Z,9.50
2023-04-04T17:12:15.318Z,9.20
2023-04-04T17:14:41.891Z,8.80
2023-04-04T17:17:09.313Z,8.50
2023-04-04T17:19:37.212Z,8.40
2023-04-04T17:22:26.521Z,8.40
2023-04-04T17:28:15.923Z,7.80
2023-04-04T17:49:53.327Z,6.20
2023-04-04T17:52:41.314Z,5.90
2023-04-04T17:55:21.976Z,5.70
2023-04-04T17:58:06.646Z,5.60
2023-04-04T18:03:56.958Z,5.30
2023-04-04T18:06:41.874Z,5.20
2023-04-04T18:09:20.583Z,5.00
2023-04-04T18:11:56.422Z,5.00
2023-04-04T18:14:25.634Z,4.80
2023-04-04T18:16:56.264Z,4.70
2023-04-04T18:19:26.164Z,4.60
2023-04-04T18:22:01.150Z,4.50
2023-04-04T18:24:29.578Z,4.50
2023-04-04T18:27:01.196Z,4.40
2023-04-04T18:29:31.000Z,4.30
2023-04-04T18:32:21.497Z,4.30
2023-04-04T18:35:02.114Z,4.20
2023-04-04T18:37:42.418Z,4.20
2023-04-04T18:40:12.391Z,4.10
2023-04-04T18:46:04.104Z,4.10
2023-04-04T18:48:48.810Z,4.00
2023-04-04T18:51:40.582Z,4.00
2023-04-04T18:54:26.605Z,4.00
2023-04-04T18:57:05.444Z,4.00
2023-04-04T18:59:42.666Z,4.00
2023-04-04T19:02:36.050Z,3.90
2023-04-04T19:05:27.754Z,3.90
2023-04-04T19:08:13.439Z,3.90
2023-04-04T19:10:53.060Z,3.80
2023-04-04T19:13:29.395Z,3.80
2023-04-04T19:16:04.652Z,3.80
2023-04-04T19:18:33.311Z,3.80
2023-04-04T19:21:02.098Z,3.80
2023-04-04T19:23:32.066Z,3.80
2023-04-04T19:26:08.702Z,3.70
2023-04-04T19:28:50.224Z,3.70
2023-04-04T19:31:37.192Z,3.70
2023-04-04T19:37:17.355Z,3.60
2023-04-04T19:40:07.126Z,3.60
2023-04-04T19:43:10.926Z,3.50
2023-04-04T19:45:47.894Z,3.50
2023-04-04T19:51:26.196Z,3.50
2023-04-04T19:53:59.274Z,3.40
2023-04-04T19:56:42.825Z,3.40
2023-04-04T19:59:14.996Z,3.50
2023-04-04T20:01:57.690Z,3.40
2023-04-04T20:04:29.442Z,3.50
2023-04-04T20:06:56.520Z,3.50
2023-04-04T20:09:36.195Z,3.50
2023-04-04T20:15:29.879Z,3.50
2023-04-04T20:18:03.001Z,3.50
2023-04-04T20:20:31.196Z,3.50
2023-04-04T20:22:58.359Z,3.50
2023-04-04T20:25:26.007Z,3.50
2023-04-04T20:27:58.118Z,3.50
2023-04-04T20:30:30.177Z,3.60
2023-04-04T20:33:06.326Z,3.60
2023-04-04T20:35:35.123Z,3.60
2023-04-04T20:38:08.304Z,3.60
2023-04-04T20:40:37.654Z,3.60
2023-04-04T20:43:04.601Z,3.60
2023-04-04T20:45:43.266Z,3.60
2023-04-04T20:48:10.615Z,3.60
2023-04-04T20:50:42.851Z,3.60
2023-04-04T20:53:12.897Z,3.60
2023-04-04T20:55:39.886Z,3.60
2023-04-04T20:58:12.714Z,3.60
2023-04-04T21:01:02.621Z,3.60
2023-04-04T21:04:02.576Z,3.50
2023-04-04T21:07:03.054Z,3.50
2023-04-04T21:10:00.601Z,3.40
2023-04-04T21:18:52.618Z,3.30
2023-04-04T21:21:49.926Z,3.20
2023-04-04T21:24:34.023Z,3.10
2023-04-04T21:27:04.796Z,3.00
2023-04-04T21:29:32.758Z,3.00
2023-04-04T21:32:02.220Z,3.00
2023-04-04T21:34:29.864Z,2.90
2023-04-04T21:36:57.610Z,2.90
2023-04-04T21:39:25.095Z,3.00
2023-04-04T21:41:58.350Z,3.00
2023-04-04T21:44:28.692Z,2.90
2023-04-04T21:46:56.397Z,2.80
2023-04-04T21:49:23.097Z,2.80
2023-04-04T21:51:50.116Z,2.70
2023-04-04T21:54:17.630Z,2.70
2023-04-04T21:56:44.777Z,2.60
2023-04-04T21:59:12.634Z,2.60
2023-04-04T22:01:41.064Z,2.60
2023-04-04T22:04:08.248Z,2.70
2023-04-04T22:06:34.927Z,2.60
2023-04-04T22:09:03.294Z,2.50
2023-04-04T22:11:29.866Z,2.50
2023-04-04T22:14:07.064Z,2.50
2023-04-04T22:16:36.764Z,2.40
2023-04-04T22:19:04.099Z,2.40
2023-04-04T22:21:30.759Z,2.40
2023-04-04T22:24:01.031Z,2.30
2023-04-04T22:26:33.934Z,2.20
2023-04-04T22:29:00.646Z,2.20
2023-04-04T22:31:27.236Z,2.20
2023-04-04T22:33:53.947Z,2.20
2023-04-04T22:36:21.900Z,2.30
2023-04-04T22:38:49.389Z,2.30
2023-04-04T22:41:16.044Z,2.30
2023-04-04T22:43:42.620Z,2.30
2023-04-04T22:46:09.248Z,2.40
2023-04-04T22:48:41.039Z,2.50
2023-04-04T22:51:07.654Z,2.60
2023-04-04T22:53:34.232Z,2.60
2023-04-04T22:56:00.876Z,2.60
2023-04-04T22:58:27.459Z,2.60
2023-04-04T23:00:54.070Z,2.60
2023-04-04T23:03:21.244Z,2.60
2023-04-04T23:05:47.906Z,2.60
2023-04-04T23:08:14.471Z,2.70
2023-04-04T23:10:41.256Z,2.70
2023-04-04T23:13:08.008Z,2.60
2023-04-04T23:15:37.610Z,2.60
2023-04-04T23:18:04.390Z,2.60
2023-04-04T23:20:34.098Z,2.60
2023-04-04T23:23:00.892Z,2.60
2023-04-04T23:25:27.587Z,2.60
2023-04-04T23:27:54.407Z,2.60
2023-04-04T23:30:22.981Z,2.50
2023-04-04T23:32:50.392Z,2.50
2023-04-04T23:35:17.053Z,2.50
2023-04-04T23:37:43.635Z,2.50
2023-04-04T23:40:10.181Z,2.50
2023-04-04T23:42:36.777Z,2.50
2023-04-04T23:45:04.633Z,2.60
2023-04-04T23:47:31.255Z,2.60
2023-04-04T23:49:57.825Z,2.60
2023-04-04T23:52:25.605Z,2.50
2023-04-04T23:54:52.253Z,2.50
2023-04-04T23:57:18.840Z,2.50
2023-04-04T23:59:45.458Z,2.40
